createdAt,value
2023-05-14T00:02:18.535Z,98320.75
2023-05-14T00:04:51.344Z,98319.69
2023-05-14T00:07:21.164Z,98312.03
2023-05-14T00:09:50.978Z,98298.25
2023-05-14T00:12:20.798Z,98295.88
2023-05-14T00:14:50.447Z,98262.69
2023-05-14T00:17:20.270Z,98254.88
2023-05-14T00:19:52.591Z,98248.06
2023-05-14T00:22:22.373Z,98211.44
2023-05-14T00:24:52.050Z,98203.53
2023-05-14T00:27:21.724Z,98205.56
2023-05-14T00:29:51.648Z,98200.41
2023-05-14T00:32:21.375Z,98200.06
2023-05-14T00:34:53.726Z,98208.81
2023-05-14T00:37:23.470Z,98209.06
2023-05-14T00:39:53.161Z,98199.72
2023-05-14T00:42:22.849Z,98201.78
2023-05-14T00:44:52.520Z,98201.06
2023-05-14T00:47:22.568Z,98191.50
2023-05-14T00:49:54.896Z,98191.94
2023-05-14T00:52:24.594Z,98183.34
2023-05-14T00:54:54.525Z,98185.22
2023-05-14T00:57:24.284Z,98183.81
2023-05-14T00:59:54.160Z,98183.81
2023-05-14T01:02:24.099Z,98186.81
2023-05-14T01:04:56.633Z,98188.03
2023-05-14T01:07:31.084Z,98187.28
2023-05-14T01:10:04.677Z,98180.47
2023-05-14T01:12:39.707Z,98181.44
2023-05-14T01:15:12.635Z,98191.16
2023-05-14T01:17:46.500Z,98181.81
2023-05-14T01:20:19.545Z,98184.56
2023-05-14T01:22:52.207Z,98184.94
2023-05-14T01:25:22.033Z,98175.38
2023-05-14T01:27:57.891Z,98174.88
2023-05-14T01:30:32.981Z,98164.72
2023-05-14T01:33:18.346Z,98164.00
2023-05-14T01:35:48.507Z,98172.38
2023-05-14T01:38:22.125Z,98166.41
2023-05-14T01:40:52.149Z,98172.75
2023-05-14T01:43:22.078Z,98175.50
2023-05-14T01:45:51.875Z,98175.59
2023-05-14T01:48:21.696Z,98178.34
2023-05-14T01:50:51.578Z,98172.25
2023-05-14T01:53:23.843Z,98161.84
2023-05-14T01:55:53.683Z,98158.66
2023-05-14T01:58:23.370Z,98153.59
2023-05-14T02:00:53.001Z,98145.34
2023-05-14T02:03:22.761Z,98141.66
2023-05-14T02:05:52.965Z,98136.59
2023-05-14T02:08:25.669Z,98135.19
2023-05-14T02:10:55.456Z,98132.78
2023-05-14T02:13:28.231Z,98141.16
2023-05-14T02:15:58.978Z,98146.78
2023-05-14T02:18:28.785Z,98147.84
2023-05-14T02:20:58.460Z,98147.25
2023-05-14T02:23:40.567Z,98140.69
2023-05-14T02:26:12.433Z,98135.63
2023-05-14T02:28:42.218Z,98119.97
2023-05-14T02:31:11.970Z,98117.22
2023-05-14T02:33:41.755Z,98104.06
2023-05-14T02:36:11.840Z,98086.03
2023-05-14T02:38:44.165Z,98076.81
2023-05-14T02:41:13.901Z,98070.59
2023-05-14T02:43:43.623Z,98065.22
2023-05-14T02:46:13.508Z,98052.91
2023-05-14T02:48:43.334Z,98065.09
2023-05-14T02:51:13.191Z,98053.75
2023-05-14T02:53:45.508Z,98063.44
2023-05-14T02:56:15.202Z,98055.06
2023-05-14T02:58:45.090Z,98063.19
2023-05-14T03:01:15.098Z,98054.59
2023-05-14T03:03:45.233Z,98063.56
2023-05-14T03:06:15.626Z,98061.75
2023-05-14T03:08:47.923Z,98057.69
2023-05-14T03:11:17.622Z,98057.56
2023-05-14T03:13:47.287Z,98058.88
2023-05-14T03:16:16.982Z,98049.31
2023-05-14T03:18:46.829Z,98056.47
2023-05-14T03:21:17.370Z,98052.91
2023-05-14T03:23:50.863Z,98069.88
2023-05-14T03:26:22.612Z,98068.19
2023-05-14T03:28:56.610Z,98073.66
2023-05-14T03:31:26.812Z,98087.88
2023-05-14T03:33:59.510Z,98090.38
2023-05-14T03:36:29.379Z,98092.31
2023-05-14T03:39:01.716Z,98094.22
2023-05-14T03:41:31.568Z,98095.19
2023-05-14T03:44:01.346Z,98094.69
2023-05-14T03:46:31.060Z,98097.44
2023-05-14T03:49:01.077Z,98093.25
2023-05-14T03:51:31.916Z,98092.28
2023-05-14T03:54:04.262Z,98092.41
2023-05-14T03:56:34.093Z,98100.63
2023-05-14T03:59:03.809Z,98096.22
2023-05-14T04:01:35.216Z,98093.72
2023-05-14T04:04:05.041Z,98095.63
2023-05-14T04:06:35.734Z,98099.16
2023-05-14T04:09:07.983Z,98104.44
2023-05-14T04:11:38.051Z,98099.28
2023-05-14T04:14:08.477Z,98094.28
2023-05-14T04:16:38.259Z,98100.50
2023-05-14T04:19:08.538Z,98093.44
2023-05-14T04:21:39.020Z,98090.81
2023-05-14T04:24:11.662Z,98091.97
2023-05-14T04:26:41.398Z,98083.25
2023-05-14T04:29:11.073Z,98091.97
2023-05-14T04:31:41.043Z,98096.28
2023-05-14T04:34:10.763Z,98096.28
2023-05-14T04:36:40.401Z,98094.41
2023-05-14T04:39:12.724Z,98093.56
2023-05-14T04:41:42.836Z,98083.97
2023-05-14T04:44:12.538Z,98074.44
2023-05-14T04:46:42.394Z,98072.63
2023-05-14T04:49:12.284Z,98068.84
2023-05-14T04:51:42.142Z,98071.34
2023-05-14T04:54:14.620Z,98065.75
2023-05-14T04:56:44.502Z,98064.94
2023-05-14T04:59:14.476Z,98059.53
2023-05-14T05:01:44.198Z,98068.97
2023-05-14T05:04:14.041Z,98057.28
2023-05-14T05:06:43.832Z,98061.34
2023-05-14T05:09:16.426Z,98057.66
2023-05-14T05:11:46.105Z,98046.09
2023-05-14T05:14:15.745Z,98037.13
2023-05-14T05:16:45.487Z,98036.16
2023-05-14T05:19:15.423Z,98033.53
2023-05-14T05:21:45.382Z,98036.88
2023-05-14T05:24:17.673Z,98026.25
2023-05-14T05:26:47.413Z,98026.84
2023-05-14T05:29:17.130Z,98021.72
2023-05-14T05:31:46.800Z,98025.88
2023-05-14T05:34:16.511Z,98020.28
2023-05-14T05:36:46.203Z,98027.09
2023-05-14T05:39:18.499Z,98018.97
2023-05-14T05:41:48.197Z,98015.28
2023-05-14T05:44:17.879Z,98007.97
2023-05-14T05:46:47.876Z,98011.34
2023-05-14T05:49:17.537Z,98009.41
2023-05-14T05:51:47.142Z,98005.56
2023-05-14T05:54:19.431Z,98003.69
2023-05-14T05:56:49.132Z,98005.22
2023-05-14T05:59:18.857Z,98006.53
2023-05-14T06:01:48.558Z,98001.03
2023-05-14T06:04:18.239Z,98005.19
2023-05-14T06:06:47.896Z,98003.19
2023-05-14T06:09:20.975Z,98006.53
2023-05-14T06:11:50.700Z,98000.91
2023-05-14T06:14:20.402Z,97996.22
2023-05-14T06:16:50.178Z,97993.34
2023-05-14T06:19:19.962Z,97985.91
2023-05-14T06:21:49.657Z,97997.88
2023-05-14T06:24:22.898Z,97990.44
2023-05-14T06:26:52.669Z,97975.13
2023-05-14T06:29:22.428Z,97969.47
2023-05-14T06:31:52.348Z,97961.19
2023-05-14T06:34:22.220Z,97949.34
2023-05-14T06:36:51.877Z,97936.50
2023-05-14T06:39:24.426Z,97921.84
2023-05-14T06:41:54.157Z,97908.06
2023-05-14T06:44:26.181Z,97900.22
2023-05-14T06:46:55.952Z,97877.56
2023-05-14T06:49:25.701Z,97847.66
2023-05-14T06:51:55.421Z,97818.72
2023-05-14T06:54:27.780Z,97800.06
2023-05-14T06:56:57.576Z,97768.31
2023-05-14T06:59:27.287Z,97754.06
2023-05-14T07:01:57.069Z,97738.66
2023-05-14T07:04:27.060Z,97735.59
2023-05-14T07:06:57.012Z,97722.81
2023-05-14T07:09:29.337Z,97717.13
2023-05-14T07:11:59.067Z,97722.81
2023-05-14T07:14:28.756Z,97716.94
2023-05-14T07:16:58.649Z,97715.50
2023-05-14T07:19:28.826Z,97702.38
2023-05-14T07:21:59.125Z,97703.25
2023-05-14T07:24:31.517Z,97694.69
2023-05-14T07:27:01.945Z,97696.09
2023-05-14T07:29:35.088Z,97689.16
2023-05-14T07:32:04.923Z,97686.91
2023-05-14T07:34:34.631Z,97673.47
2023-05-14T07:37:04.467Z,97659.13
2023-05-14T07:39:36.738Z,97654.28
2023-05-14T07:42:08.064Z,97638.16
2023-05-14T07:44:37.871Z,97629.50
2023-05-14T07:47:08.901Z,97618.16
2023-05-14T07:49:38.670Z,97607.25
2023-05-14T07:52:08.356Z,97595.88
2023-05-14T07:54:40.690Z,97586.06
2023-05-14T07:57:10.535Z,97593.19
2023-05-14T07:59:40.197Z,97614.91
2023-05-14T08:02:10.476Z,97683.41
2023-05-14T08:04:40.331Z,97808.97
2023-05-14T08:07:10.210Z,97999.19
2023-05-14T08:09:42.534Z,98330.13
2023-05-14T08:12:12.952Z,98535.72
2023-05-14T08:14:42.590Z,98709.81
2023-05-14T08:17:12.321Z,98887.84
2023-05-14T08:19:42.073Z,98971.03
2023-05-14T08:22:11.859Z,99175.38
2023-05-14T08:24:44.986Z,99415.44
2023-05-14T08:27:14.696Z,99518.44
2023-05-14T08:29:44.465Z,99557.22
2023-05-14T08:32:22.911Z,99745.06
2023-05-14T08:34:53.393Z,99801.34
2023-05-14T08:37:23.047Z,99808.84
2023-05-14T08:39:56.333Z,99919.75
2023-05-14T08:42:27.591Z,99870.25
2023-05-14T08:45:04.245Z,99887.69
2023-05-14T08:47:34.488Z,99976.75
2023-05-14T08:50:06.658Z,99964.19
2023-05-14T08:52:37.023Z,99859.91
2023-05-14T08:55:10.094Z,100002.41
2023-05-14T08:57:39.946Z,100318.06
2023-05-14T09:00:11.903Z,100292.59
2023-05-14T09:02:43.144Z,100430.34
2023-05-14T09:05:13.496Z,100482.09
2023-05-14T09:07:43.171Z,100601.34
2023-05-14T09:10:15.628Z,100577.28
2023-05-14T09:12:45.324Z,100624.41
2023-05-14T09:15:15.104Z,100625.00
2023-05-14T09:17:44.926Z,100652.13
2023-05-14T09:20:15.930Z,100706.81
2023-05-14T09:22:45.669Z,100725.22
2023-05-14T09:25:18.006Z,100739.31
2023-05-14T09:27:50.495Z,100757.53
2023-05-14T09:30:20.463Z,100742.06
2023-05-14T09:32:50.722Z,100767.63
2023-05-14T09:35:22.264Z,100767.38
2023-05-14T09:37:53.798Z,100788.81
2023-05-14T09:40:27.195Z,100776.34
2023-05-14T09:42:57.393Z,100785.84
2023-05-14T09:45:27.160Z,100797.69
2023-05-14T09:47:56.915Z,100801.31
2023-05-14T09:50:27.012Z,100799.75
2023-05-14T09:52:58.191Z,100793.25
2023-05-14T09:55:30.697Z,100776.88
2023-05-14T09:58:00.374Z,100784.56
2023-05-14T10:00:30.046Z,100775.59
2023-05-14T10:03:01.133Z,100771.69
2023-05-14T10:05:31.117Z,100758.72
2023-05-14T10:08:02.668Z,100768.66
2023-05-14T10:10:36.984Z,100764.38
2023-05-14T10:13:08.327Z,100775.34
2023-05-14T10:15:42.607Z,100782.63
2023-05-14T10:18:13.771Z,100791.09
2023-05-14T10:20:44.079Z,100795.66
2023-05-14T10:23:13.859Z,100784.13
2023-05-14T10:25:46.315Z,100770.50
2023-05-14T10:28:16.195Z,100769.94
2023-05-14T10:30:47.753Z,100767.44
2023-05-14T10:33:18.940Z,100768.03
2023-05-14T10:36:03.190Z,100781.53
2023-05-14T10:38:33.892Z,100782.56
2023-05-14T10:41:07.930Z,100790.34
2023-05-14T10:43:40.387Z,100782.31
2023-05-14T10:46:11.166Z,100782.63
2023-05-14T10:48:43.021Z,100782.34
2023-05-14T10:51:14.178Z,100784.34
2023-05-14T10:53:45.593Z,100780.16
2023-05-14T10:56:17.903Z,100785.88
2023-05-14T10:58:48.216Z,100766.78
2023-05-14T11:01:18.657Z,100768.06
2023-05-14T11:03:49.166Z,100767.28
2023-05-14T11:06:19.105Z,100762.69
2023-05-14T11:08:48.781Z,100762.56
2023-05-14T11:11:21.920Z,100766.53
2023-05-14T11:13:51.996Z,100763.84
2023-05-14T11:16:24.135Z,100769.69
2023-05-14T11:18:57.645Z,100771.09
2023-05-14T11:21:27.490Z,100771.63
2023-05-14T11:23:57.766Z,100781.13
2023-05-14T11:26:30.105Z,100776.00
2023-05-14T11:28:59.884Z,100752.50
2023-05-14T11:31:29.677Z,100760.31
2023-05-14T11:33:59.463Z,100755.22
2023-05-14T11:36:29.233Z,100751.56
2023-05-14T11:38:58.984Z,100749.28
2023-05-14T11:41:31.537Z,100752.28
2023-05-14T11:44:01.739Z,100758.63
2023-05-14T11:46:31.564Z,100745.78
2023-05-14T11:49:01.538Z,100740.66
2023-05-14T11:51:32.122Z,100749.88
2023-05-14T11:54:01.847Z,100741.81
2023-05-14T11:56:45.134Z,100741.81
2023-05-14T11:59:14.952Z,100724.81
2023-05-14T12:01:44.613Z,100745.63
2023-05-14T12:04:14.326Z,100743.66
2023-05-14T12:06:44.101Z,100747.19
2023-05-14T12:09:16.520Z,100747.59
2023-05-14T12:11:49.164Z,100740.91
2023-05-14T12:14:19.773Z,100738.03
2023-05-14T12:16:50.189Z,100743.38
2023-05-14T12:19:20.911Z,100735.66
2023-05-14T12:21:52.976Z,100738.81
2023-05-14T12:24:22.756Z,100739.53
2023-05-14T12:26:57.516Z,100733.59
2023-05-14T12:29:29.334Z,100730.75
2023-05-14T12:32:00.836Z,100730.50
2023-05-14T12:34:30.661Z,100721.44
2023-05-14T12:37:00.360Z,100720.75
2023-05-14T12:39:30.077Z,100735.19
2023-05-14T12:42:02.434Z,100725.66
2023-05-14T12:44:32.171Z,100722.41
2023-05-14T12:47:01.922Z,100716.19
2023-05-14T12:49:31.732Z,100714.34
2023-05-14T12:52:17.296Z,100706.44
2023-05-14T12:54:49.471Z,100703.16
2023-05-14T12:57:21.747Z,100703.16
2023-05-14T12:59:51.432Z,100693.69
2023-05-14T13:02:21.834Z,100696.97
2023-05-14T13:04:51.565Z,100690.88
2023-05-14T13:07:21.334Z,100688.59
2023-05-14T13:09:51.092Z,100680.69
2023-05-14T13:12:23.366Z,100676.00
2023-05-14T13:14:53.198Z,100669.22
2023-05-14T13:17:23.104Z,100671.50
2023-05-14T13:19:52.877Z,100674.88
2023-05-14T13:22:22.519Z,100675.84
2023-05-14T13:24:52.212Z,100673.47
2023-05-14T13:27:24.623Z,100681.09
2023-05-14T13:29:54.355Z,100673.47
2023-05-14T13:32:24.133Z,100665.66
2023-05-14T13:34:53.851Z,100658.88
2023-05-14T13:37:23.558Z,100667.66
2023-05-14T13:39:53.247Z,100665.81
2023-05-14T13:42:25.796Z,100661.44
2023-05-14T13:44:56.445Z,100656.38
2023-05-14T13:47:26.215Z,100657.91
2023-05-14T13:49:56.603Z,100651.53
2023-05-14T13:52:26.545Z,100641.63
2023-05-14T13:54:56.558Z,100645.16
2023-05-14T13:57:28.840Z,100645.13
2023-05-14T13:59:58.764Z,100651.50
2023-05-14T14:02:28.574Z,100652.66
2023-05-14T14:04:58.348Z,100635.41
2023-05-14T14:07:28.071Z,100634.00
2023-05-14T14:09:57.726Z,100632.59
2023-05-14T14:12:30.190Z,100641.50
2023-05-14T14:14:59.976Z,100633.59
2023-05-14T14:17:29.656Z,100632.19
2023-05-14T14:19:59.372Z,100634.31
2023-05-14T14:22:29.469Z,100629.63
2023-05-14T14:24:59.228Z,100621.41
2023-05-14T14:27:36.146Z,100620.16
2023-05-14T14:30:05.949Z,100621.84
2023-05-14T14:32:35.682Z,100625.09
2023-05-14T14:35:05.620Z,100619.00
2023-05-14T14:37:35.406Z,100612.78
2023-05-14T14:40:07.297Z,100610.53
2023-05-14T14:42:40.157Z,100611.22
2023-05-14T14:45:10.998Z,100612.78
2023-05-14T14:47:40.854Z,100615.47
2023-05-14T14:50:12.601Z,100621.56
2023-05-14T14:52:45.750Z,100618.59
2023-05-14T14:55:16.038Z,100624.53
2023-05-14T14:57:48.308Z,100619.72
2023-05-14T15:00:20.573Z,100619.72
2023-05-14T15:02:50.421Z,100612.50
2023-05-14T15:05:20.324Z,100619.44
2023-05-14T15:07:49.956Z,100611.50
2023-05-14T15:10:19.699Z,100611.66
2023-05-14T15:12:51.959Z,100623.41
2023-05-14T15:15:22.084Z,100616.19
2023-05-14T15:17:51.986Z,100621.28
2023-05-14T15:20:21.781Z,100613.66
2023-05-14T15:22:52.584Z,100608.56
2023-05-14T15:25:23.024Z,100610.84
2023-05-14T15:27:56.022Z,100598.53
2023-05-14T15:30:25.918Z,100599.66
2023-05-14T15:32:55.888Z,100594.44
2023-05-14T15:35:26.048Z,100591.75
2023-05-14T15:37:58.862Z,100601.50
2023-05-14T15:40:30.473Z,100594.00
2023-05-14T15:43:02.818Z,100591.31
2023-05-14T15:45:32.635Z,100587.19
2023-05-14T15:48:02.536Z,100585.63
2023-05-14T15:50:32.563Z,100584.22
2023-05-14T15:53:03.079Z,100579.97
2023-05-14T15:55:32.972Z,100583.63
2023-05-14T15:58:05.362Z,100580.25
2023-05-14T16:00:35.221Z,100576.16
2023-05-14T16:03:04.992Z,100577.97
2023-05-14T16:05:34.968Z,100568.81
2023-05-14T16:08:04.681Z,100570.91
2023-05-14T16:10:34.462Z,100569.38
2023-05-14T16:13:06.745Z,100568.38
2023-05-14T16:15:36.496Z,100577.56
2023-05-14T16:18:06.399Z,100563.44
2023-05-14T16:20:36.027Z,100573.59
2023-05-14T16:23:05.721Z,100581.94
2023-05-14T16:25:35.462Z,100578.25
2023-05-14T16:28:08.140Z,100571.75
2023-05-14T16:30:37.883Z,100569.91
2023-05-14T16:33:07.865Z,100574.44
2023-05-14T16:35:37.990Z,100581.94
2023-05-14T16:38:08.085Z,100567.06
2023-05-14T16:40:37.966Z,100567.91
2023-05-14T16:43:10.279Z,100567.47
2023-05-14T16:45:40.542Z,100561.56
2023-05-14T16:48:10.626Z,100560.69
2023-05-14T16:50:40.310Z,100557.16
2023-05-14T16:53:11.734Z,100562.63
2023-05-14T16:55:41.513Z,100550.50
2023-05-14T16:58:13.819Z,100561.72
2023-05-14T17:00:43.491Z,100559.00
2023-05-14T17:03:13.298Z,100565.75
2023-05-14T17:05:43.046Z,100557.72
2023-05-14T17:08:12.746Z,100548.97
2023-05-14T17:10:42.442Z,100545.56
2023-05-14T17:13:14.721Z,100547.53
2023-05-14T17:15:44.547Z,100548.09
2023-05-14T17:18:14.332Z,100539.59
2023-05-14T17:20:44.049Z,100545.22
2023-05-14T17:23:13.709Z,100554.78
2023-05-14T17:25:43.598Z,100531.75
2023-05-14T17:28:15.992Z,100513.97
2023-05-14T17:30:45.970Z,100506.38
2023-05-14T17:33:15.966Z,100474.72
2023-05-14T17:35:45.980Z,100463.31
2023-05-14T17:38:18.913Z,100469.34
2023-05-14T17:40:48.672Z,100480.31
2023-05-14T17:43:23.455Z,100492.41
2023-05-14T17:45:54.878Z,100476.97
2023-05-14T17:48:25.266Z,100473.00
2023-05-14T17:50:55.873Z,100484.09
2023-05-14T17:53:25.616Z,100501.56
2023-05-14T17:55:55.380Z,100503.91
2023-05-14T17:58:27.925Z,100492.00
2023-05-14T18:00:57.970Z,100495.06
2023-05-14T18:03:27.876Z,100493.31
2023-05-14T18:05:57.676Z,100515.00
2023-05-14T18:08:27.415Z,100508.19
2023-05-14T18:11:00.983Z,100491.69
2023-05-14T18:13:33.529Z,100479.66
2023-05-14T18:16:03.947Z,100478.22
2023-05-14T18:18:33.863Z,100476.06
2023-05-14T18:21:03.589Z,100473.75
2023-05-14T18:23:33.342Z,100478.75
2023-05-14T18:26:03.002Z,100493.47
2023-05-14T18:28:35.403Z,100484.38
2023-05-14T18:31:05.501Z,100488.56
2023-05-14T18:33:35.406Z,100479.19
2023-05-14T18:36:05.074Z,100479.81
2023-05-14T18:38:34.890Z,100483.72
2023-05-14T18:41:04.584Z,100488.72
2023-05-14T18:43:36.834Z,100481.44
2023-05-14T18:46:06.936Z,100482.78
2023-05-14T18:48:36.889Z,100485.47
2023-05-14T18:51:07.825Z,100493.09
2023-05-14T18:53:38.168Z,100494.47
2023-05-14T18:56:09.762Z,100477.09
2023-05-14T18:58:42.262Z,100475.72
2023-05-14T19:01:12.015Z,100475.47
2023-05-14T19:03:42.463Z,100476.81
2023-05-14T19:06:12.306Z,100470.13
2023-05-14T19:08:41.949Z,100466.00
2023-05-14T19:11:11.705Z,100461.16
2023-05-14T19:13:46.710Z,100468.41
2023-05-14T19:16:16.590Z,100454.47
2023-05-14T19:18:46.390Z,100447.06
2023-05-14T19:21:17.184Z,100445.34
2023-05-14T19:23:46.926Z,100446.78
2023-05-14T19:26:16.572Z,100445.09
2023-05-14T19:28:48.856Z,100437.69
2023-05-14T19:31:18.711Z,100435.13
2023-05-14T19:33:48.424Z,100438.88
2023-05-14T19:36:18.145Z,100423.34
2023-05-14T19:38:47.733Z,100418.34
2023-05-14T19:41:17.754Z,100415.31
2023-05-14T19:43:50.040Z,100422.84
2023-05-14T19:46:19.804Z,100420.72
2023-05-14T19:48:49.624Z,100418.50
2023-05-14T19:51:19.688Z,100416.41
2023-05-14T19:53:49.493Z,100416.03
2023-05-14T19:56:19.802Z,100403.16
2023-05-14T19:58:52.496Z,100381.34
2023-05-14T20:01:23.500Z,100362.28
2023-05-14T20:03:53.375Z,100350.88
2023-05-14T20:06:23.306Z,100331.13
2023-05-14T20:08:53.090Z,100317.28
2023-05-14T20:11:22.946Z,100321.13
2023-05-14T20:13:55.283Z,100280.78
2023-05-14T20:16:25.064Z,100268.44
2023-05-14T20:18:55.938Z,100252.91
2023-05-14T20:21:25.787Z,100229.97
2023-05-14T20:23:55.438Z,100211.81
2023-05-14T20:26:25.192Z,100209.63
2023-05-14T20:28:57.914Z,100209.94
2023-05-14T20:31:27.744Z,100228.84
2023-05-14T20:33:57.411Z,100211.47
2023-05-14T20:36:29.827Z,100188.59
2023-05-14T20:39:00.523Z,100181.91
2023-05-14T20:41:30.813Z,100181.41
2023-05-14T20:44:03.119Z,100168.44
2023-05-14T20:46:32.870Z,100145.69
2023-05-14T20:49:03.888Z,100096.28
2023-05-14T20:51:33.696Z,100009.88
2023-05-14T20:54:03.618Z,99950.47
2023-05-14T20:56:33.379Z,99945.41
2023-05-14T20:59:05.702Z,99893.63
2023-05-14T21:01:35.400Z,99872.94
2023-05-14T21:04:05.361Z,99849.34
2023-05-14T21:06:35.196Z,99837.25
2023-05-14T21:09:04.898Z,99836.75
2023-05-14T21:11:34.612Z,99834.56
2023-05-14T21:14:07.187Z,99840.28
2023-05-14T21:16:36.990Z,99823.59
2023-05-14T21:19:06.778Z,99785.03
2023-05-14T21:21:37.764Z,99761.56
2023-05-14T21:24:08.018Z,99759.28
2023-05-14T21:26:40.523Z,99754.31
2023-05-14T21:29:12.918Z,99744.25
2023-05-14T21:31:42.649Z,99719.72
2023-05-14T21:34:12.278Z,99714.03
2023-05-14T21:36:42.042Z,99684.94
2023-05-14T21:39:11.753Z,99643.72
2023-05-14T21:41:41.465Z,99621.84
2023-05-14T21:44:13.860Z,99622.34
2023-05-14T21:46:43.672Z,99607.47
2023-05-14T21:49:13.338Z,99610.50
2023-05-14T21:51:43.042Z,99596.72
2023-05-14T21:54:14.216Z,99593.72
2023-05-14T21:56:43.891Z,99587.69
2023-05-14T21:59:16.121Z,99561.47
2023-05-14T22:02:05.329Z,99531.28
2023-05-14T22:04:35.586Z,99531.53
2023-05-14T22:07:05.389Z,99530.91
2023-05-14T22:09:35.129Z,99534.94
2023-05-14T22:12:05.094Z,99547.44
2023-05-14T22:14:37.616Z,99533.72
2023-05-14T22:17:07.744Z,99515.59
2023-05-14T22:19:37.397Z,99510.53
2023-05-14T22:22:07.451Z,99502.09
2023-05-14T22:24:37.122Z,99504.03
2023-05-14T22:27:07.407Z,99484.09
2023-05-14T22:29:39.627Z,99488.19
2023-05-14T22:32:10.441Z,99484.94
2023-05-14T22:34:40.372Z,99464.16
2023-05-14T22:37:10.794Z,99447.38
2023-05-14T22:39:40.630Z,99460.16
2023-05-14T22:42:11.107Z,99443.78
2023-05-14T22:44:43.497Z,99422.78
2023-05-14T22:47:13.217Z,99412.38
2023-05-14T22:49:43.770Z,99396.00
2023-05-14T22:52:13.506Z,99369.81
2023-05-14T22:54:43.253Z,99359.22
2023-05-14T22:57:12.943Z,99345.50
2023-05-14T22:59:45.273Z,99323.44
2023-05-14T23:02:15.003Z,99307.88
2023-05-14T23:04:44.739Z,99291.25
2023-05-14T23:07:14.419Z,99278.34
2023-05-14T23:09:44.085Z,99244.00
2023-05-14T23:12:13.776Z,99164.75
2023-05-14T23:14:46.173Z,98928.41
2023-05-14T23:17:15.961Z,98908.31
2023-05-14T23:19:45.759Z,98884.69
2023-05-14T23:22:15.509Z,98861.63
2023-05-14T23:24:45.161Z,98833.59
2023-05-14T23:27:14.834Z,98818.91
2023-05-14T23:29:47.145Z,98812.91
2023-05-14T23:32:16.954Z,98806.22
2023-05-14T23:34:46.717Z,98816.34
2023-05-14T23:37:16.457Z,98802.63
2023-05-14T23:39:46.139Z,98791.31
2023-05-14T23:42:15.913Z,98790.03
2023-05-14T23:44:48.233Z,98770.06
2023-05-14T23:47:18.044Z,98758.06
2023-05-14T23:49:47.705Z,98739.75
2023-05-14T23:52:17.368Z,98730.38
2023-05-14T23:54:47.069Z,98726.31
2023-05-14T23:57:16.814Z,98706.50
2023-05-14T23:59:49.098Z,98697.84
